createdAt,value
2018-12-06T00:00:11.771Z,99.99
2018-12-06T00:01:12.726Z,99.99
2018-12-06T00:02:11.793Z,99.99
2018-12-06T00:03:11.667Z,99.99
2018-12-06T00:04:12.223Z,99.99
2018-12-06T00:05:11.595Z,99.99
2018-12-06T00:06:12.274Z,99.99
2018-12-06T00:07:11.572Z,99.99
2018-12-06T00:08:12.243Z,99.99
2018-12-06T00:09:12.224Z,99.99
2018-12-06T00:10:11.425Z,99.99
2018-12-06T00:11:11.392Z,99.99
2018-12-06T00:12:11.392Z,99.99
2018-12-06T00:13:11.787Z,99.99
2018-12-06T00:14:12.225Z,99.99
2018-12-06T00:15:11.323Z,99.99
2018-12-06T00:16:11.728Z,99.99
2018-12-06T00:17:11.180Z,99.99
2018-12-06T00:18:11.185Z,99.99
2018-12-06T00:19:11.727Z,99.99
2018-12-06T00:20:11.072Z,99.99
2018-12-06T00:21:11.037Z,99.99
2018-12-06T00:22:11.008Z,99.99
2018-12-06T00:23:11.292Z,99.99
2018-12-06T00:24:10.936Z,99.99
2018-12-06T00:25:10.902Z,99.99
2018-12-06T00:26:10.872Z,99.99
2018-12-06T00:27:10.851Z,99.99
2018-12-06T00:28:10.842Z,99.99
2018-12-06T00:29:10.822Z,99.99
2018-12-06T00:30:11.729Z,99.99
2018-12-06T00:31:10.698Z,99.99
2018-12-06T00:32:10.654Z,99.99
2018-12-06T00:33:10.630Z,99.99
2018-12-06T00:34:10.795Z,99.99
2018-12-06T00:35:10.559Z,99.99
2018-12-06T00:36:10.515Z,99.99
2018-12-06T00:37:11.231Z,99.99
2018-12-06T00:38:10.456Z,99.99
2018-12-06T00:39:10.810Z,99.99
2018-12-06T00:40:10.388Z,99.99
2018-12-06T00:41:10.344Z,99.99
2018-12-06T00:42:10.312Z,99.99
2018-12-06T00:43:10.290Z,99.99
2018-12-06T00:44:10.781Z,99.99
2018-12-06T00:45:10.728Z,99.99
2018-12-06T00:46:10.281Z,99.99
2018-12-06T00:47:10.138Z,99.99
2018-12-06T00:48:10.105Z,99.99
2018-12-06T00:49:10.732Z,99.99
2018-12-06T00:50:10.080Z,99.99
2018-12-06T00:51:10.067Z,99.99
2018-12-06T00:52:10.731Z,99.99
2018-12-06T00:53:10.731Z,99.99
2018-12-06T00:54:10.725Z,99.99
2018-12-06T00:55:10.726Z,99.99
2018-12-06T00:56:10.301Z,99.99
2018-12-06T00:57:09.791Z,99.99
2018-12-06T00:58:09.758Z,99.99
2018-12-06T00:59:09.727Z,99.99
2018-12-06T01:00:09.683Z,99.99
2018-12-06T01:01:09.711Z,99.99
2018-12-06T01:02:10.233Z,99.99
2018-12-06T01:03:10.275Z,99.99
2018-12-06T01:04:10.220Z,99.99
2018-12-06T01:05:10.225Z,99.99
2018-12-06T01:06:09.528Z,99.99
2018-12-06T01:07:10.220Z,99.99
2018-12-06T01:08:09.405Z,99.99
2018-12-06T01:09:09.372Z,99.99
2018-12-06T01:10:10.306Z,99.99
2018-12-06T01:11:09.350Z,99.99
2018-12-06T01:12:09.273Z,99.99
2018-12-06T01:13:09.229Z,99.99
2018-12-06T01:14:09.199Z,99.99
2018-12-06T01:15:09.167Z,99.99
2018-12-06T01:16:09.204Z,99.99
2018-12-06T01:17:09.728Z,99.99
2018-12-06T01:18:09.060Z,99.99
2018-12-06T01:19:09.721Z,99.99
2018-12-06T01:20:08.998Z,99.99
2018-12-06T01:21:08.998Z,99.99
2018-12-06T01:22:08.971Z,99.99
2018-12-06T01:23:09.730Z,99.99
2018-12-06T01:24:09.721Z,99.99
2018-12-06T01:25:08.823Z,99.99
2018-12-06T01:26:08.784Z,99.99
2018-12-06T01:27:08.806Z,99.99
2018-12-06T01:28:08.768Z,99.99
2018-12-06T01:29:08.696Z,99.99
2018-12-06T01:30:08.649Z,99.99
2018-12-06T01:31:08.618Z,99.99
2018-12-06T01:32:08.783Z,99.99
2018-12-06T01:33:08.550Z,99.99
2018-12-06T01:34:09.221Z,99.99
2018-12-06T01:35:08.527Z,99.99
2018-12-06T01:36:09.227Z,99.99
2018-12-06T01:37:08.411Z,99.99
2018-12-06T01:38:08.374Z,99.99
2018-12-06T01:39:08.347Z,99.99
2018-12-06T01:40:08.777Z,99.99
2018-12-06T01:41:09.225Z,99.99
2018-12-06T01:42:08.235Z,99.99
2018-12-06T01:43:08.730Z,99.99
2018-12-06T01:44:08.213Z,99.99
2018-12-06T01:45:08.196Z,99.99
2018-12-06T01:46:08.100Z,99.99
2018-12-06T01:47:08.723Z,99.99
2018-12-06T01:48:08.031Z,99.99
2018-12-06T01:49:08.040Z,99.99
2018-12-06T01:50:08.056Z,99.99
2018-12-06T01:51:07.935Z,99.99
2018-12-06T01:52:07.901Z,99.99
2018-12-06T01:53:07.905Z,99.99
2018-12-06T01:54:07.829Z,99.99
2018-12-06T01:55:08.637Z,99.99
2018-12-06T01:56:07.794Z,99.99
2018-12-06T01:57:08.226Z,99.99
2018-12-06T01:58:07.887Z,99.99
2018-12-06T01:59:08.292Z,99.99
2018-12-06T02:00:08.244Z,99.99
2018-12-06T02:01:08.176Z,99.99
2018-12-06T02:02:07.553Z,99.99
2018-12-06T02:03:07.517Z,99.99
2018-12-06T02:04:07.481Z,99.99
2018-12-06T02:05:07.494Z,99.99
2018-12-06T02:06:07.462Z,99.99
2018-12-06T02:07:08.270Z,99.99
2018-12-06T02:08:07.345Z,99.99
2018-12-06T02:09:07.312Z,99.99
2018-12-06T02:10:08.278Z,99.99
2018-12-06T02:11:07.244Z,99.99
2018-12-06T02:12:07.221Z,99.99
2018-12-06T02:13:07.176Z,99.99
2018-12-06T02:14:07.139Z,99.99
2018-12-06T02:15:07.147Z,99.99
2018-12-06T02:16:07.071Z,99.99
2018-12-06T02:17:07.039Z,99.99
2018-12-06T02:18:07.003Z,99.99
2018-12-06T02:19:06.970Z,99.99
2018-12-06T02:20:06.975Z,99.99
2018-12-06T02:21:06.906Z,99.99
2018-12-06T02:22:06.873Z,99.99
2018-12-06T02:23:06.842Z,99.99
2018-12-06T02:24:06.847Z,99.99
2018-12-06T02:25:06.810Z,99.99
2018-12-06T02:26:06.732Z,99.99
2018-12-06T02:27:06.703Z,99.99
2018-12-06T02:28:06.665Z,99.99
2018-12-06T02:29:07.231Z,99.99
2018-12-06T02:30:06.779Z,99.99
2018-12-06T02:31:06.602Z,99.99
2018-12-06T02:32:06.524Z,99.99
2018-12-06T02:33:06.494Z,99.99
2018-12-06T02:34:06.502Z,99.99
2018-12-06T02:35:06.423Z,99.99
2018-12-06T02:36:06.438Z,99.99
2018-12-06T02:37:06.355Z,99.99
2018-12-06T02:38:06.332Z,99.99
2018-12-06T02:39:06.289Z,99.99
2018-12-06T02:40:06.253Z,99.99
2018-12-06T02:41:06.345Z,99.99
2018-12-06T02:42:06.191Z,99.99
2018-12-06T02:43:06.152Z,99.99
2018-12-06T02:44:06.128Z,99.99
2018-12-06T02:45:06.127Z,99.99
2018-12-06T02:46:06.283Z,99.99
2018-12-06T02:47:06.283Z,99.99
2018-12-06T02:48:06.732Z,99.99
2018-12-06T02:49:05.949Z,99.99
2018-12-06T02:50:05.913Z,99.99
2018-12-06T02:51:05.876Z,99.99
2018-12-06T02:52:05.884Z,99.99
2018-12-06T02:53:05.848Z,99.99
2018-12-06T02:54:05.779Z,99.99
2018-12-06T02:55:05.742Z,99.99
2018-12-06T02:56:05.709Z,99.99
2018-12-06T02:57:05.728Z,99.99
2018-12-06T02:58:05.689Z,99.99
2018-12-06T02:59:05.604Z,99.99
2018-12-06T03:00:05.573Z,99.99
2018-12-06T03:01:05.535Z,99.99
2018-12-06T03:02:05.538Z,99.99
2018-12-06T03:03:06.231Z,99.99
2018-12-06T03:04:05.787Z,99.99
2018-12-06T03:05:05.404Z,99.99
2018-12-06T03:06:05.362Z,99.99
2018-12-06T03:07:06.283Z,99.99
2018-12-06T03:08:05.297Z,99.99
2018-12-06T03:09:05.784Z,99.99
2018-12-06T03:10:05.228Z,99.99
2018-12-06T03:11:05.194Z,99.99
2018-12-06T03:12:05.165Z,99.99
2018-12-06T03:13:05.287Z,99.99
2018-12-06T03:14:05.090Z,99.99
2018-12-06T03:15:05.127Z,99.99
2018-12-06T03:16:05.028Z,99.99
2018-12-06T03:17:04.990Z,99.99
2018-12-06T03:18:05.039Z,99.99
2018-12-06T03:19:04.936Z,99.99
2018-12-06T03:20:05.739Z,99.99
2018-12-06T03:21:05.742Z,99.99
2018-12-06T03:22:05.735Z,99.99
2018-12-06T03:23:04.834Z,99.99
2018-12-06T03:24:05.281Z,99.99
2018-12-06T03:25:04.765Z,99.99
2018-12-06T03:26:04.686Z,99.99
2018-12-06T03:27:05.234Z,99.99
2018-12-06T03:28:05.240Z,99.99
2018-12-06T03:29:04.619Z,99.99
2018-12-06T03:30:04.792Z,99.99
2018-12-06T03:31:05.234Z,99.99
2018-12-06T03:32:04.476Z,99.99
2018-12-06T03:33:04.441Z,99.99
2018-12-06T03:34:05.320Z,99.99
2018-12-06T03:35:04.481Z,99.99
2018-12-06T03:36:04.387Z,99.99
2018-12-06T03:37:05.258Z,99.99
2018-12-06T03:38:04.270Z,99.99
2018-12-06T03:39:04.239Z,99.99
2018-12-06T03:40:04.201Z,99.99
2018-12-06T03:41:04.295Z,99.99
2018-12-06T03:42:04.738Z,99.99
2018-12-06T03:43:04.733Z,99.99
2018-12-06T03:44:04.065Z,99.99
2018-12-06T03:45:04.032Z,99.99
2018-12-06T03:46:04.303Z,99.99
2018-12-06T03:47:03.964Z,99.99
2018-12-06T03:48:04.744Z,99.99
2018-12-06T03:49:04.740Z,99.99
2018-12-06T03:50:03.865Z,99.99
2018-12-06T03:51:03.890Z,99.99
2018-12-06T03:52:03.792Z,99.99
2018-12-06T03:53:03.761Z,99.99
2018-12-06T03:54:03.719Z,99.99
2018-12-06T03:55:04.243Z,99.99
2018-12-06T03:56:03.727Z,99.99
2018-12-06T03:57:03.623Z,99.99
2018-12-06T03:58:04.241Z,99.99
2018-12-06T03:59:03.549Z,99.99
2018-12-06T04:00:04.241Z,99.99
2018-12-06T04:01:03.548Z,99.99
2018-12-06T04:02:03.453Z,99.99
2018-12-06T04:03:04.235Z,99.99
2018-12-06T04:04:03.405Z,99.99
2018-12-06T04:05:03.354Z,99.99
2018-12-06T04:06:03.451Z,99.99
2018-12-06T04:07:03.279Z,99.99
2018-12-06T04:08:03.250Z,99.99
2018-12-06T04:09:03.743Z,99.99
2018-12-06T04:10:03.181Z,99.99
2018-12-06T04:11:03.188Z,99.99
2018-12-06T04:12:03.168Z,99.99
2018-12-06T04:13:04.159Z,99.99
2018-12-06T04:14:03.089Z,99.99
2018-12-06T04:15:03.736Z,99.99
2018-12-06T04:16:03.743Z,99.99
2018-12-06T04:17:02.987Z,99.99
2018-12-06T04:18:02.930Z,99.99
2018-12-06T04:19:02.868Z,99.99
2018-12-06T04:20:02.838Z,99.99
2018-12-06T04:21:03.746Z,99.99
2018-12-06T04:22:03.317Z,99.99
2018-12-06T04:23:02.796Z,99.99
2018-12-06T04:24:02.699Z,99.99
2018-12-06T04:25:03.243Z,99.99
2018-12-06T04:26:03.238Z,99.99
2018-12-06T04:27:02.600Z,99.99
2018-12-06T04:28:02.610Z,99.99
2018-12-06T04:29:02.524Z,99.99
2018-12-06T04:30:03.243Z,99.99
2018-12-06T04:31:02.456Z,99.99
2018-12-06T04:32:02.425Z,99.99
2018-12-06T04:33:02.445Z,99.99
2018-12-06T04:34:03.240Z,99.99
2018-12-06T04:35:02.324Z,99.99
2018-12-06T04:36:02.291Z,99.99
2018-12-06T04:37:03.245Z,99.99
2018-12-06T04:38:02.308Z,99.99
2018-12-06T04:39:02.188Z,99.99
2018-12-06T04:40:02.743Z,99.99
2018-12-06T04:41:02.767Z,99.99
2018-12-06T04:42:02.081Z,99.99
2018-12-06T04:43:02.314Z,99.99
2018-12-06T04:44:02.014Z,99.99
2018-12-06T04:45:02.749Z,99.99
2018-12-06T04:46:02.739Z,99.99
2018-12-06T04:47:01.911Z,99.99
2018-12-06T04:48:01.921Z,99.99
2018-12-06T04:49:01.845Z,99.99
2018-12-06T04:50:01.813Z,99.99
2018-12-06T04:51:01.774Z,99.99
2018-12-06T04:52:01.743Z,99.99
2018-12-06T04:53:01.745Z,99.99
2018-12-06T04:54:01.671Z,99.99
2018-12-06T04:55:01.767Z,99.99
2018-12-06T04:56:02.257Z,99.99
2018-12-06T04:57:02.252Z,99.99
2018-12-06T04:58:02.243Z,99.99
2018-12-06T04:59:01.504Z,99.99
2018-12-06T05:00:01.539Z,99.99
2018-12-06T05:01:02.245Z,99.99
2018-12-06T05:02:01.401Z,99.99
2018-12-06T05:03:02.293Z,99.99
2018-12-06T05:04:02.295Z,99.99
2018-12-06T05:05:01.440Z,99.29
2018-12-06T05:06:02.248Z,99.39
2018-12-06T05:07:01.235Z,99.29
2018-12-06T05:08:01.198Z,99.39
2018-12-06T05:09:01.759Z,99.58
2018-12-06T05:10:01.318Z,98.63
2018-12-06T05:11:01.655Z,99.67
2018-12-06T05:12:01.061Z,99.48
2018-12-06T05:13:01.026Z,98.63
2018-12-06T05:14:03.654Z,98.35
2018-12-06T05:15:00.997Z,98.63
2018-12-06T05:16:00.926Z,98.16
2018-12-06T05:17:00.892Z,98.02
2018-12-06T05:18:01.910Z,97.07
2018-12-06T05:19:01.746Z,96.88
2018-12-06T05:20:00.832Z,97.07
2018-12-06T05:21:01.745Z,96.03
2018-12-06T05:22:00.750Z,96.41
2018-12-06T05:23:00.723Z,96.22
2018-12-06T05:24:00.656Z,96.41
2018-12-06T05:25:00.802Z,96.50
2018-12-06T05:26:00.817Z,96.31
2018-12-06T05:27:00.567Z,95.93
2018-12-06T05:28:00.525Z,95.93
2018-12-06T05:29:00.488Z,95.65
2018-12-06T05:30:00.456Z,95.26
2018-12-06T05:31:00.837Z,95.07
2018-12-06T05:32:00.390Z,94.13
2018-12-06T05:33:01.323Z,94.70
2018-12-06T05:34:00.335Z,94.60
2018-12-06T05:35:00.289Z,94.13
2018-12-06T05:36:00.298Z,93.65
2018-12-06T05:37:00.264Z,93.94
2018-12-06T05:38:00.187Z,93.84
2018-12-06T05:39:00.749Z,93.75
2018-12-06T05:40:00.145Z,93.46
2018-12-06T05:41:00.091Z,92.99
2018-12-06T05:42:00.094Z,93.18
2018-12-06T05:43:00.022Z,93.56
2018-12-06T05:43:59.995Z,93.37
2018-12-06T05:44:59.954Z,92.99
2018-12-06T05:45:59.940Z,92.61
2018-12-06T05:46:59.952Z,91.57
2018-12-06T05:47:59.857Z,90.91
2018-12-06T05:48:59.825Z,91.19
2018-12-06T05:49:59.786Z,91.76
2018-12-06T05:50:59.766Z,91.47
2018-12-06T05:51:59.802Z,91.38
2018-12-06T05:53:00.253Z,91.47
2018-12-06T05:54:00.245Z,91.57
2018-12-06T05:54:59.622Z,91.28
2018-12-06T05:56:00.251Z,89.91
2018-12-06T05:56:59.805Z,89.58
2018-12-06T05:57:59.565Z,89.48
2018-12-06T05:58:59.498Z,90.43
2018-12-06T05:59:59.515Z,90.34
2018-12-06T06:00:59.421Z,89.72
2018-12-06T06:01:59.826Z,88.92
2018-12-06T06:02:59.382Z,89.01
2018-12-06T06:03:59.323Z,89.01
2018-12-06T06:04:59.341Z,88.92
2018-12-06T06:06:00.254Z,89.11
2018-12-06T06:06:59.220Z,88.39
2018-12-06T06:07:59.189Z,87.68
2018-12-06T06:08:59.160Z,88.25
2018-12-06T06:09:59.169Z,88.44
2018-12-06T06:10:59.084Z,87.97
2018-12-06T06:11:59.051Z,87.21
2018-12-06T06:12:59.017Z,87.25
2018-12-06T06:13:58.996Z,87.35
2018-12-06T06:14:59.008Z,87.06
2018-12-06T06:15:58.919Z,86.97
2018-12-06T06:16:58.883Z,86.59
2018-12-06T06:17:59.755Z,85.55
2018-12-06T06:18:59.304Z,86.49
2018-12-06T06:19:58.827Z,86.59
2018-12-06T06:20:58.801Z,86.30
2018-12-06T06:21:58.722Z,86.11
2018-12-06T06:22:58.687Z,86.21
2018-12-06T06:23:58.667Z,86.30
2018-12-06T06:24:58.906Z,86.78
2018-12-06T06:25:58.643Z,85.93
2018-12-06T06:26:58.557Z,85.74
2018-12-06T06:27:58.534Z,85.93
2018-12-06T06:28:58.494Z,85.45
2018-12-06T06:29:58.507Z,85.74
2018-12-06T06:30:59.269Z,86.02
2018-12-06T06:31:58.419Z,86.11
2018-12-06T06:32:58.366Z,86.11
2018-12-06T06:33:58.326Z,86.30
2018-12-06T06:34:58.813Z,86.49
2018-12-06T06:35:58.335Z,86.02
2018-12-06T06:36:58.231Z,85.64
2018-12-06T06:37:58.211Z,85.55
2018-12-06T06:38:58.170Z,85.83
2018-12-06T06:39:58.128Z,86.11
2018-12-06T06:40:58.160Z,85.83
2018-12-06T06:41:58.123Z,86.02
2018-12-06T06:42:58.035Z,86.68
2018-12-06T06:43:58.001Z,87.16
2018-12-06T06:44:57.964Z,87.45
2018-12-06T06:45:57.978Z,87.63
2018-12-06T06:46:57.896Z,87.45
2018-12-06T06:47:57.869Z,87.06
2018-12-06T06:48:57.833Z,86.49
2018-12-06T06:49:57.804Z,87.16
2018-12-06T06:50:57.826Z,87.16
2018-12-06T06:51:57.732Z,86.59
2018-12-06T06:52:57.725Z,86.97
2018-12-06T06:53:58.259Z,87.16
2018-12-06T06:54:57.639Z,86.68
2018-12-06T06:55:57.655Z,86.40
2018-12-06T06:56:57.568Z,86.59
2018-12-06T06:57:57.595Z,86.59
2018-12-06T06:58:58.613Z,86.40
2018-12-06T06:59:57.479Z,86.68
2018-12-06T07:00:57.435Z,86.02
2018-12-06T07:01:57.396Z,86.30
2018-12-06T07:02:57.410Z,86.59
2018-12-06T07:03:57.336Z,86.40
2018-12-06T07:04:57.296Z,86.59
2018-12-06T07:05:57.287Z,86.11
2018-12-06T07:06:57.274Z,85.45
2018-12-06T07:07:57.786Z,85.17
2018-12-06T07:08:57.213Z,85.74
2018-12-06T07:09:57.137Z,85.64
2018-12-06T07:10:57.103Z,85.55
2018-12-06T07:11:57.068Z,85.74
2018-12-06T07:12:57.096Z,85.55
2018-12-06T07:13:57.008Z,85.64
2018-12-06T07:14:56.974Z,85.36
2018-12-06T07:15:57.000Z,85.55
2018-12-06T07:16:56.918Z,85.55
2018-12-06T07:17:56.932Z,85.55
2018-12-06T07:18:56.852Z,85.64
2018-12-06T07:19:56.800Z,85.36
2018-12-06T07:20:56.848Z,85.64
2018-12-06T07:21:56.743Z,85.45
2018-12-06T07:22:56.755Z,85.36
2018-12-06T07:23:56.725Z,85.45
2018-12-06T07:24:56.644Z,84.98
2018-12-06T07:25:56.610Z,85.07
2018-12-06T07:26:56.624Z,85.36
2018-12-06T07:27:56.585Z,86.02
2018-12-06T07:28:56.508Z,86.11
2018-12-06T07:29:56.474Z,85.93
2018-12-06T07:30:56.451Z,86.40
2018-12-06T07:31:56.414Z,86.40
2018-12-06T07:32:56.421Z,86.78
2018-12-06T07:33:56.342Z,85.83
2018-12-06T07:34:56.322Z,85.83
2018-12-06T07:35:56.344Z,86.21
2018-12-06T07:36:56.251Z,86.02
2018-12-06T07:37:56.258Z,86.02
2018-12-06T07:38:56.178Z,85.36
2018-12-06T07:39:56.220Z,85.74
2018-12-06T07:40:56.121Z,85.74
2018-12-06T07:41:56.077Z,84.98
2018-12-06T07:42:56.099Z,84.31
2018-12-06T07:43:56.012Z,84.69
2018-12-06T07:44:55.980Z,84.88
2018-12-06T07:45:55.957Z,85.17
2018-12-06T07:46:55.913Z,84.78
2018-12-06T07:47:55.922Z,84.69
2018-12-06T07:48:55.854Z,84.41
2018-12-06T07:49:55.850Z,84.98
2018-12-06T07:50:55.793Z,84.78
2018-12-06T07:51:55.743Z,84.98
2018-12-06T07:52:55.711Z,84.41
2018-12-06T07:53:55.738Z,84.50
2018-12-06T07:54:55.752Z,84.88
2018-12-06T07:55:55.654Z,85.17
2018-12-06T07:56:55.689Z,84.50
2018-12-06T07:57:55.687Z,83.94
2018-12-06T07:58:55.527Z,84.03
2018-12-06T07:59:55.530Z,84.69
2018-12-06T08:00:55.475Z,84.88
2018-12-06T08:01:55.580Z,84.88
2018-12-06T08:02:55.387Z,84.59
2018-12-06T08:03:57.069Z,84.59
2018-12-06T08:04:55.354Z,84.98
2018-12-06T08:05:55.280Z,84.88
2018-12-06T08:06:55.257Z,84.88
2018-12-06T08:07:55.280Z,84.50
2018-12-06T08:08:55.227Z,84.03
2018-12-06T08:09:55.150Z,84.22
2018-12-06T08:10:55.112Z,83.65
2018-12-06T08:11:55.083Z,83.84
2018-12-06T08:12:55.062Z,83.94
2018-12-06T08:13:55.111Z,84.22
2018-12-06T08:14:55.055Z,83.94
2018-12-06T08:15:55.003Z,84.78
2018-12-06T08:16:54.931Z,84.88
2018-12-06T08:17:54.898Z,84.59
2018-12-06T08:18:54.901Z,83.50
2018-12-06T08:19:54.823Z,83.59
2018-12-06T08:20:54.793Z,83.22
2018-12-06T08:21:55.263Z,84.17
2018-12-06T08:22:54.727Z,84.26
2018-12-06T08:23:54.731Z,83.88
2018-12-06T08:24:54.656Z,83.50
2018-12-06T08:25:54.621Z,84.64
2018-12-06T08:26:54.585Z,83.88
2018-12-06T08:27:54.553Z,84.26
2018-12-06T08:28:54.599Z,84.45
2018-12-06T08:29:54.495Z,83.50
2018-12-06T08:30:54.458Z,83.78
2018-12-06T08:31:54.426Z,83.97
2018-12-06T08:32:54.421Z,84.07
2018-12-06T08:33:54.411Z,83.50
2018-12-06T08:34:54.327Z,83.69
2018-12-06T08:35:54.299Z,83.40
2018-12-06T08:36:54.336Z,83.22
2018-12-06T08:37:54.302Z,83.59
2018-12-06T08:38:54.236Z,83.69
2018-12-06T08:39:54.207Z,84.07
2018-12-06T08:40:54.133Z,83.31
2018-12-06T08:41:54.104Z,83.69
2018-12-06T08:42:54.074Z,83.69
2018-12-06T08:43:54.037Z,83.69
2018-12-06T08:44:54.047Z,83.40
2018-12-06T08:45:53.972Z,83.88
2018-12-06T08:46:53.942Z,83.03
2018-12-06T08:47:53.899Z,83.78
2018-12-06T08:48:53.868Z,84.07
2018-12-06T08:49:53.879Z,83.59
2018-12-06T08:50:53.852Z,83.12
2018-12-06T08:51:53.775Z,82.55
2018-12-06T08:52:53.736Z,82.74
2018-12-06T08:53:53.708Z,83.12
2018-12-06T08:54:53.725Z,83.50
2018-12-06T08:55:53.646Z,83.22
2018-12-06T08:56:53.611Z,82.65
2018-12-06T08:57:53.583Z,83.12
2018-12-06T08:58:53.551Z,82.74
2018-12-06T08:59:53.574Z,82.46
2018-12-06T09:00:53.486Z,82.69
2018-12-06T09:01:53.521Z,83.26
2018-12-06T09:02:53.432Z,82.78
2018-12-06T09:03:53.394Z,82.50
2018-12-06T09:04:53.402Z,82.50
2018-12-06T09:05:53.378Z,82.50
2018-12-06T09:06:53.300Z,82.50
2018-12-06T09:07:53.266Z,82.40
2018-12-06T09:08:53.226Z,82.50
2018-12-06T09:09:53.198Z,81.26
2018-12-06T09:10:53.213Z,81.55
2018-12-06T09:11:53.176Z,81.36
2018-12-06T09:12:53.102Z,81.26
2018-12-06T09:13:53.078Z,81.26
2018-12-06T09:14:53.046Z,81.36
2018-12-06T09:15:53.059Z,81.26
2018-12-06T09:16:52.978Z,81.45
2018-12-06T09:17:52.956Z,80.51
2018-12-06T09:18:52.927Z,80.69
2018-12-06T09:19:52.926Z,80.79
2018-12-06T09:20:52.864Z,81.07
2018-12-06T09:21:52.823Z,81.55
2018-12-06T09:22:52.795Z,82.03
2018-12-06T09:23:52.794Z,81.26
2018-12-06T09:24:52.732Z,81.74
2018-12-06T09:25:52.735Z,81.36
2018-12-06T09:26:58.672Z,81.17
2018-12-06T09:27:52.640Z,81.36
2018-12-06T09:28:52.604Z,81.26
2018-12-06T09:29:52.574Z,81.40
2018-12-06T09:30:52.585Z,81.40
2018-12-06T09:31:53.279Z,82.07
2018-12-06T09:32:52.474Z,82.07
2018-12-06T09:33:52.448Z,81.30
2018-12-06T09:34:52.409Z,81.68
2018-12-06T09:35:52.435Z,80.93
2018-12-06T09:36:52.343Z,81.30
2018-12-06T09:37:52.317Z,80.64
2018-12-06T09:38:53.282Z,80.16
2018-12-06T09:39:52.278Z,80.74
2018-12-06T09:40:52.280Z,81.49
2018-12-06T09:41:52.192Z,81.30
2018-12-06T09:42:52.168Z,81.40
2018-12-06T09:43:52.802Z,81.59
2018-12-06T09:44:52.806Z,81.30
2018-12-06T09:45:52.127Z,81.78
2018-12-06T09:46:52.051Z,81.68
2018-12-06T09:47:52.001Z,81.21
2018-12-06T09:48:51.969Z,81.40
2018-12-06T09:49:51.943Z,82.07
2018-12-06T09:50:52.341Z,82.45
2018-12-06T09:51:51.889Z,82.35
2018-12-06T09:52:52.352Z,82.54
2018-12-06T09:53:51.815Z,82.45
2018-12-06T09:54:51.793Z,82.92
2018-12-06T09:55:51.756Z,82.82
2018-12-06T09:56:51.741Z,82.73
2018-12-06T09:57:51.736Z,82.16
2018-12-06T09:58:51.664Z,82.45
2018-12-06T09:59:51.633Z,82.82
2018-12-06T10:00:51.599Z,82.54
2018-12-06T10:01:51.569Z,81.97
2018-12-06T10:02:51.715Z,82.73
2018-12-06T10:03:51.552Z,82.73
2018-12-06T10:04:51.480Z,82.82
2018-12-06T10:05:51.439Z,82.92
2018-12-06T10:06:51.415Z,82.45
2018-12-06T10:07:51.867Z,82.82
2018-12-06T10:08:51.346Z,82.92
2018-12-06T10:09:52.280Z,82.82
2018-12-06T10:10:51.289Z,82.92
2018-12-06T10:11:51.254Z,82.73
2018-12-06T10:12:51.289Z,83.20
2018-12-06T10:13:51.196Z,82.92
2018-12-06T10:14:51.222Z,82.92
2018-12-06T10:15:51.133Z,82.82
2018-12-06T10:16:51.107Z,83.30
2018-12-06T10:17:51.119Z,83.39
2018-12-06T10:18:51.101Z,83.68
2018-12-06T10:19:51.365Z,83.68
2018-12-06T10:20:50.976Z,83.20
2018-12-06T10:21:50.946Z,82.73
2018-12-06T10:22:50.911Z,83.11
2018-12-06T10:23:50.937Z,82.64
2018-12-06T10:24:50.850Z,82.64
2018-12-06T10:25:50.821Z,83.01
2018-12-06T10:26:50.802Z,82.92
2018-12-06T10:27:50.756Z,83.20
2018-12-06T10:28:50.846Z,82.73
2018-12-06T10:29:50.703Z,82.73
2018-12-06T10:30:50.659Z,82.82
2018-12-06T10:31:50.840Z,82.87
2018-12-06T10:32:50.595Z,82.77
2018-12-06T10:33:50.571Z,83.44
2018-12-06T10:34:53.528Z,82.58
2018-12-06T10:35:50.528Z,82.96
2018-12-06T10:36:50.514Z,82.39
2018-12-06T10:37:50.442Z,82.39
2018-12-06T10:38:50.421Z,82.68
2018-12-06T10:39:50.679Z,82.49
2018-12-06T10:40:50.353Z,82.77
2018-12-06T10:41:50.383Z,82.29
2018-12-06T10:42:50.290Z,82.49
2018-12-06T10:43:50.262Z,81.82
2018-12-06T10:44:50.285Z,81.82
2018-12-06T10:45:50.199Z,82.10
2018-12-06T10:46:50.172Z,82.29
2018-12-06T10:47:50.249Z,82.96
2018-12-06T10:48:50.112Z,82.77
2018-12-06T10:49:50.348Z,82.87
2018-12-06T10:50:50.047Z,82.96
2018-12-06T10:51:50.079Z,83.15
2018-12-06T10:52:50.003Z,83.06
2018-12-06T10:53:50.003Z,83.15
2018-12-06T10:54:49.928Z,83.15
2018-12-06T10:55:50.355Z,83.15
2018-12-06T10:56:49.866Z,83.34
2018-12-06T10:57:49.836Z,83.72
2018-12-06T10:58:49.809Z,83.62
2018-12-06T10:59:49.777Z,83.91
2018-12-06T11:00:57.028Z,83.62
2018-12-06T11:01:49.879Z,84.20
2018-12-06T11:02:49.686Z,83.72
2018-12-06T11:03:49.652Z,83.91
2018-12-06T11:04:49.620Z,83.86
2018-12-06T11:05:49.667Z,82.91
2018-12-06T11:06:49.571Z,83.19
2018-12-06T11:07:49.531Z,83.39
2018-12-06T11:08:49.505Z,83.95
2018-12-06T11:09:50.316Z,83.86
2018-12-06T11:10:49.482Z,82.71
2018-12-06T11:11:49.435Z,82.91
2018-12-06T11:12:49.422Z,83.19
2018-12-06T11:13:49.368Z,82.81
2018-12-06T11:14:49.321Z,83.10
2018-12-06T11:15:49.287Z,83.29
2018-12-06T11:16:49.254Z,84.33
2018-12-06T11:17:49.295Z,84.62
2018-12-06T11:18:49.199Z,83.58
2018-12-06T11:19:49.239Z,83.48
2018-12-06T11:20:49.151Z,83.95
2018-12-06T11:21:49.111Z,83.76
2018-12-06T11:22:49.134Z,83.58
2018-12-06T11:23:49.046Z,83.86
2018-12-06T11:24:49.020Z,83.76
2018-12-06T11:25:48.982Z,83.48
2018-12-06T11:26:48.960Z,84.33
2018-12-06T11:27:48.960Z,83.39
2018-12-06T11:28:48.892Z,83.67
2018-12-06T11:29:48.912Z,83.58
2018-12-06T11:30:48.833Z,84.24
2018-12-06T11:31:48.806Z,83.95
2018-12-06T11:32:48.781Z,83.76
2018-12-06T11:33:48.807Z,83.76
2018-12-06T11:34:48.713Z,84.52
2018-12-06T11:35:48.682Z,83.90
2018-12-06T11:36:48.662Z,83.62
2018-12-06T11:37:48.629Z,84.47
2018-12-06T11:38:48.650Z,84.09
2018-12-06T11:39:48.604Z,84.09
2018-12-06T11:40:48.574Z,84.00
2018-12-06T11:41:48.499Z,84.19
2018-12-06T11:42:48.470Z,84.66
2018-12-06T11:43:48.441Z,84.72
2018-12-06T11:44:48.411Z,84.81
2018-12-06T11:45:48.442Z,85.24
2018-12-06T11:46:48.353Z,86.05
2018-12-06T11:47:48.333Z,85.86
2018-12-06T11:48:48.327Z,86.05
2018-12-06T11:49:48.343Z,86.05
2018-12-06T11:50:48.804Z,86.43
2018-12-06T11:51:48.207Z,86.05
2018-12-06T11:52:48.271Z,86.71
2018-12-06T11:53:48.157Z,86.80
2018-12-06T11:54:48.159Z,86.52
2018-12-06T11:55:48.809Z,86.99
2018-12-06T11:56:48.064Z,86.99
2018-12-06T11:57:48.024Z,86.80
2018-12-06T11:58:48.802Z,87.38
2018-12-06T11:59:48.029Z,86.80
2018-12-06T12:00:47.955Z,86.80
2018-12-06T12:01:47.909Z,87.57
2018-12-06T12:02:47.880Z,87.09
2018-12-06T12:03:47.847Z,87.57
2018-12-06T12:04:47.866Z,87.76
2018-12-06T12:05:47.848Z,88.13
2018-12-06T12:06:47.766Z,87.95
2018-12-06T12:07:47.727Z,87.57
2018-12-06T12:08:47.698Z,88.33
2018-12-06T12:09:47.712Z,88.23
2018-12-06T12:10:47.864Z,88.13
2018-12-06T12:11:47.604Z,88.71
2018-12-06T12:12:47.574Z,88.61
2018-12-06T12:13:47.612Z,89.18
2018-12-06T12:14:47.525Z,89.09
2018-12-06T12:15:47.552Z,89.37
2018-12-06T12:16:47.453Z,90.14
2018-12-06T12:17:47.426Z,90.70
2018-12-06T12:18:48.305Z,91.08
2018-12-06T12:19:47.372Z,90.70
2018-12-06T12:20:47.420Z,90.99
2018-12-06T12:21:47.314Z,90.80
2018-12-06T12:22:47.277Z,90.80
2018-12-06T12:23:47.802Z,91.28
2018-12-06T12:24:47.207Z,90.80
2018-12-06T12:25:47.976Z,90.80
2018-12-06T12:26:47.363Z,90.99
2018-12-06T12:27:47.117Z,91.66
2018-12-06T12:28:47.111Z,91.94
2018-12-06T12:29:47.087Z,91.56
2018-12-06T12:30:47.034Z,91.85
2018-12-06T12:31:47.053Z,92.13
2018-12-06T12:32:46.989Z,92.32
2018-12-06T12:33:46.968Z,92.51
2018-12-06T12:34:46.906Z,92.22
2018-12-06T12:35:46.902Z,92.70
2018-12-06T12:36:46.901Z,92.70
2018-12-06T12:37:46.816Z,92.61
2018-12-06T12:38:46.795Z,92.41
2018-12-06T12:39:46.759Z,92.41
2018-12-06T12:40:46.727Z,92.80
2018-12-06T12:41:46.751Z,92.80
2018-12-06T12:42:46.679Z,93.08
2018-12-06T12:43:47.304Z,93.27
2018-12-06T12:44:46.643Z,93.55
2018-12-06T12:45:46.576Z,93.65
2018-12-06T12:46:46.549Z,93.37
2018-12-06T12:47:46.566Z,93.75
2018-12-06T12:48:46.481Z,94.03
2018-12-06T12:49:46.868Z,93.55
2018-12-06T12:50:46.421Z,93.75
2018-12-06T12:51:46.387Z,93.55